Time;durP1;ratioP1;P1;durP2;ratioP2;P2;SDS_P1;SDS_P2;PMS_P1;PMS_P2;Temp;Humidity;BMP_temperature;BMP_pressure;BME280_temperature;BME280_humidity;BME280_pressure;Samples;Min_cycle;Max_cycle;Signal;HPM_P1;HPM_P2
2021/01/02 00:01:16;;;;;;;8.77;5.65;;;6.90;82.60;;;;;;5012279;28;20029;-75
2021/01/02 00:03:48;;;;;;;8.52;5.57;;;6.90;82.60;;;;;;5040452;28;20473;-76
2021/01/02 00:06:42;;;;;;;8.85;5.70;;;6.90;82.60;;;;;;5043671;28;20028;-76
2021/01/02 00:09:13;;;;;;;8.90;5.47;;;6.90;82.60;;;;;;5045732;28;20029;-76
2021/01/02 00:11:44;;;;;;;9.27;5.63;;;7.00;82.60;;;;;;5041871;28;20122;-75
2021/01/02 00:14:33;;;;;;;10.18;6.50;;;6.90;82.60;;;;;;5041718;28;20465;-78
2021/01/02 00:17:23;;;;;;;9.38;6.00;;;6.90;82.60;;;;;;5040871;28;20032;-76
2021/01/02 00:20:06;;;;;;;9.52;6.15;;;6.90;82.60;;;;;;5038773;28;20033;-76
2021/01/02 00:22:46;;;;;;;9.75;5.90;;;6.90;82.60;;;;;;5037183;28;20036;-76
2021/01/02 00:25:14;;;;;;;11.25;6.47;;;6.90;82.60;;;;;;5043262;28;20108;-76
2021/01/02 00:28:04;;;;;;;9.02;5.50;;;6.90;82.60;;;;;;5053181;28;20025;-76
2021/01/02 00:30:49;;;;;;;10.07;6.40;;;6.90;82.60;;;;;;5045391;28;20025;-76
2021/01/02 00:33:22;;;;;;;9.23;5.72;;;6.90;83.20;;;;;;5045012;28;20421;-77
2021/01/02 00:35:49;;;;;;;9.18;5.88;;;6.90;83.20;;;;;;5056031;28;20025;-75
2021/01/02 00:38:16;;;;;;;11.13;6.70;;;6.90;82.60;;;;;;5046831;28;20017;-77
2021/01/02 00:40:42;;;;;;;11.73;7.20;;;6.90;82.60;;;;;;5030164;28;20059;-77
2021/01/02 00:43:08;;;;;;;9.02;6.05;;;6.90;82.60;;;;;;5019481;28;20462;-75
2021/01/02 00:45:35;;;;;;;9.75;6.35;;;6.90;82.70;;;;;;5030320;28;20030;-75
2021/01/02 00:48:05;;;;;;;10.20;6.40;;;6.90;82.70;;;;;;5033706;28;20102;-76
2021/01/02 00:50:32;;;;;;;11.05;6.68;;;6.90;82.70;;;;;;5030261;28;20055;-77
2021/01/02 00:53:35;;;;;;;10.73;5.97;;;6.90;82.70;;;;;;5032515;28;20024;-76
2021/01/02 00:56:25;;;;;;;9.52;6.35;;;6.90;82.70;;;;;;4999776;28;20041;-75
2021/01/02 00:59:26;;;;;;;8.70;5.78;;;6.90;82.60;;;;;;5019236;28;20044;-76
2021/01/02 01:02:30;;;;;;;9.52;6.35;;;6.90;82.70;;;;;;5039477;28;20109;-76
2021/01/02 01:05:06;;;;;;;10.43;6.43;;;6.90;82.60;;;;;;5039113;28;20029;-76
2021/01/02 01:07:34;;;;;;;10.52;6.97;;;6.90;82.60;;;;;;5026765;28;20029;-75
2021/01/02 01:10:04;;;;;;;9.95;6.50;;;6.90;82.60;;;;;;5032992;28;20397;-75
2021/01/02 01:12:36;;;;;;;9.23;6.25;;;6.90;82.60;;;;;;5041318;28;20404;-75
2021/01/02 01:15:02;;;;;;;11.02;7.15;;;6.90;82.60;;;;;;5030531;28;20124;-75
2021/01/02 01:17:32;;;;;;;9.52;6.45;;;6.90;82.70;;;;;;5030129;28;20083;-76
2021/01/02 01:20:02;;;;;;;10.35;6.80;;;6.90;82.70;;;;;;5043220;28;20029;-75
2021/01/02 01:22:38;;;;;;;11.15;6.95;;;6.90;82.60;;;;;;5036931;28;20477;-75
2021/01/02 01:25:06;;;;;;;12.50;7.47;;;6.90;82.70;;;;;;5036685;28;20025;-75
2021/01/02 01:27:54;;;;;;;10.32;7.30;;;6.90;82.60;;;;;;5043366;28;20548;-75
2021/01/02 01:30:23;;;;;;;11.32;7.22;;;6.90;82.70;;;;;;5044182;28;20061;-76
2021/01/02 01:33:03;;;;;;;12.07;7.43;;;6.90;82.70;;;;;;5035982;28;20163;-76
2021/01/02 01:35:29;;;;;;;10.60;7.10;;;6.90;82.80;;;;;;5048178;28;20025;-76
2021/01/02 01:37:57;;;;;;;9.40;6.43;;;6.90;82.70;;;;;;5034294;28;20033;-76
2021/01/02 01:40:30;;;;;;;11.60;7.15;;;6.90;82.80;;;;;;5048024;28;20448;-76
2021/01/02 01:43:06;;;;;;;10.20;6.70;;;6.90;82.70;;;;;;5019708;28;20116;-75
2021/01/02 01:45:38;;;;;;;10.60;7.28;;;6.90;82.70;;;;;;5035274;28;20026;-75
2021/01/02 01:48:12;;;;;;;12.13;7.53;;;6.90;82.70;;;;;;5041161;28;20041;-76
2021/01/02 01:50:56;;;;;;;10.98;7.00;;;6.90;82.70;;;;;;5033266;28;20688;-76
2021/01/02 01:53:46;;;;;;;12.02;7.80;;;6.90;82.80;;;;;;5046780;28;20056;-76
2021/01/02 01:56:24;;;;;;;10.13;6.85;;;6.90;82.70;;;;;;5027525;28;20021;-75
2021/01/02 01:58:53;;;;;;;11.45;7.10;;;6.90;82.60;;;;;;5041667;28;20037;-75
2021/01/02 02:01:26;;;;;;;10.65;6.97;;;6.90;82.60;;;;;;5019386;28;20534;-76
2021/01/02 02:04:10;;;;;;;11.25;7.15;;;6.90;82.70;;;;;;5037504;28;20021;-75
2021/01/02 02:06:51;;;;;;;10.60;7.13;;;6.90;82.80;;;;;;5044820;28;20029;-76
2021/01/02 02:09:20;;;;;;;13.23;7.63;;;6.90;82.70;;;;;;5028449;28;20029;-75
2021/01/02 02:12:02;;;;;;;12.48;7.90;;;6.90;82.70;;;;;;5034444;28;20026;-75
2021/01/02 02:14:37;;;;;;;12.32;8.15;;;6.90;82.80;;;;;;5047856;28;20025;-75
2021/01/02 02:17:04;;;;;;;11.93;7.60;;;6.90;82.70;;;;;;5041809;28;20092;-76
2021/01/02 02:19:47;;;;;;;11.13;7.68;;;6.90;82.80;;;;;;5029504;28;20033;-77
2021/01/02 02:22:19;;;;;;;12.15;7.75;;;6.90;82.80;;;;;;5034030;28;20042;-76
2021/01/02 02:24:48;;;;;;;12.05;7.75;;;6.90;82.80;;;;;;5044754;28;20112;-75
2021/01/02 02:27:14;;;;;;;11.25;7.75;;;6.90;82.80;;;;;;5047300;28;20188;-75
2021/01/02 02:30:09;;;;;;;11.48;7.30;;;6.90;82.80;;;;;;5029934;28;20481;-76
2021/01/02 02:32:40;;;;;;;11.80;7.95;;;6.90;82.90;;;;;;5006791;28;20037;-75
2021/01/02 02:35:15;;;;;;;11.20;7.28;;;6.90;82.70;;;;;;5045052;28;20064;-77
2021/01/02 02:37:46;;;;;;;;;;;6.90;82.80;;;;;;5043716;28;20020;-75
2021/01/02 02:40:13;;;;;;;10.95;7.03;;;6.90;82.70;;;;;;5034436;28;19909;-75
2021/01/02 02:42:44;;;;;;;9.35;6.57;;;6.80;82.50;;;;;;5030168;28;20048;-76
2021/01/02 02:45:12;;;;;;;10.10;6.63;;;6.90;82.60;;;;;;5055731;28;20033;-75
2021/01/02 02:47:41;;;;;;;9.70;6.43;;;6.90;82.80;;;;;;5040719;28;20064;-76
2021/01/02 02:50:22;;;;;;;12.43;7.97;;;6.80;82.80;;;;;;5037917;28;20100;-75
2021/01/02 02:53:10;;;;;;;12.43;8.35;;;6.80;82.80;;;;;;5040329;28;20087;-76
2021/01/02 02:55:40;;;;;;;10.75;7.15;;;6.80;82.80;;;;;;5050649;28;20036;-75
2021/01/02 02:58:06;;;;;;;12.65;7.85;;;6.80;82.70;;;;;;5051509;28;20029;-76
2021/01/02 03:00:33;;;;;;;12.45;8.23;;;6.80;82.80;;;;;;5022585;28;20120;-78
2021/01/02 03:03:00;;;;;;;11.80;7.70;;;6.80;82.80;;;;;;5032076;28;20046;-77
2021/01/02 03:05:26;;;;;;;11.85;8.15;;;6.80;82.80;;;;;;5032528;28;20076;-76
2021/01/02 03:07:52;;;;;;;11.55;7.97;;;6.80;82.80;;;;;;5021020;28;20053;-80
2021/01/02 03:10:20;;;;;;;11.45;7.72;;;6.80;82.80;;;;;;5025844;28;20656;-75
2021/01/02 03:12:50;;;;;;;11.15;7.78;;;6.80;82.80;;;;;;5023549;28;20044;-77
2021/01/02 03:15:18;;;;;;;11.88;7.70;;;6.80;82.90;;;;;;5033511;28;20025;-78
2021/01/02 03:17:47;;;;;;;12.20;7.90;;;6.80;82.80;;;;;;5042145;28;20018;-75
2021/01/02 03:20:14;;;;;;;12.27;7.93;;;6.80;82.80;;;;;;5042486;28;20032;-76
2021/01/02 03:22:43;;;;;;;13.18;8.43;;;6.80;82.80;;;;;;5033612;28;20053;-75
2021/01/02 03:25:10;;;;;;;12.52;8.55;;;6.80;82.80;;;;;;5014670;28;20021;-76
2021/01/02 03:27:37;;;;;;;12.20;8.48;;;6.80;82.80;;;;;;5031177;28;20022;-76
2021/01/02 03:30:09;;;;;;;11.00;8.00;;;6.80;82.80;;;;;;5035472;28;20084;-76
2021/01/02 03:32:35;;;;;;;12.02;8.10;;;6.80;82.80;;;;;;5037202;28;20025;-76
2021/01/02 03:35:05;;;;;;;11.40;8.15;;;6.80;82.80;;;;;;5052913;28;20030;-77
2021/01/02 03:37:32;;;;;;;10.75;7.85;;;6.80;82.80;;;;;;5026874;28;20473;-75
2021/01/02 03:39:57;;;;;;;13.25;8.32;;;6.80;82.80;;;;;;5037637;28;20068;-76
2021/01/02 03:42:23;;;;;;;11.15;8.05;;;6.80;82.80;;;;;;5025432;28;20040;-75
2021/01/02 03:44:49;;;;;;;13.90;9.25;;;6.80;82.80;;;;;;5043969;28;20060;-75
2021/01/02 03:47:15;;;;;;;10.77;7.78;;;6.80;82.80;;;;;;5047500;28;20167;-75
2021/01/02 03:49:40;;;;;;;12.45;8.95;;;6.80;82.80;;;;;;5036831;28;20112;-75
2021/01/02 03:52:07;;;;;;;11.80;8.18;;;6.80;82.80;;;;;;5017459;28;20464;-75
2021/01/02 03:54:34;;;;;;;12.00;8.10;;;6.80;82.80;;;;;;5049748;28;20504;-75
2021/01/02 03:57:00;;;;;;;11.15;8.20;;;6.80;82.80;;;;;;5055020;28;20631;-78
2021/01/02 03:59:25;;;;;;;12.35;8.00;;;6.80;82.80;;;;;;5016496;28;20076;-77
2021/01/02 04:02:00;;;;;;;11.43;8.23;;;6.80;82.80;;;;;;5048174;28;20048;-75
2021/01/02 04:04:27;;;;;;;12.35;8.48;;;6.80;82.90;;;;;;5037016;28;20033;-78
2021/01/02 04:06:53;;;;;;;12.43;8.18;;;6.80;82.80;;;;;;5031123;28;20030;-76
2021/01/02 04:09:22;;;;;;;10.65;8.23;;;6.70;82.80;;;;;;5045627;28;20532;-76
2021/01/02 04:11:49;;;;;;;12.32;8.60;;;6.70;82.80;;;;;;5045323;28;20085;-75
2021/01/02 04:14:15;;;;;;;12.15;8.40;;;6.70;82.80;;;;;;5032582;28;20028;-77
2021/01/02 04:16:42;;;;;;;11.38;8.38;;;6.80;82.90;;;;;;5039718;28;20502;-75
2021/01/02 04:19:08;;;;;;;11.43;8.13;;;6.70;82.80;;;;;;5004359;28;20048;-75
2021/01/02 04:21:35;;;;;;;11.75;8.75;;;6.80;82.90;;;;;;5035901;28;20024;-76
2021/01/02 04:24:01;;;;;;;11.60;8.75;;;6.70;82.80;;;;;;5032915;28;20029;-76
2021/01/02 04:26:27;;;;;;;12.65;8.30;;;6.70;82.80;;;;;;5031699;28;20117;-75
2021/01/02 04:28:54;;;;;;;11.77;7.78;;;6.70;82.80;;;;;;5040408;28;20087;-75
2021/01/02 04:31:22;;;;;;;14.40;9.57;;;6.70;82.80;;;;;;5043956;28;20560;-76
2021/01/02 04:33:48;;;;;;;12.55;8.82;;;6.70;82.90;;;;;;5046088;28;20032;-75
2021/01/02 04:36:17;;;;;;;11.10;8.35;;;6.70;82.90;;;;;;5048616;28;20056;-76
2021/01/02 04:38:43;;;;;;;12.90;8.07;;;6.70;82.90;;;;;;5047313;28;20021;-75
2021/01/02 04:41:17;;;;;;;13.05;8.68;;;6.70;82.90;;;;;;5038649;28;20079;-76
2021/01/02 04:43:49;;;;;;;11.07;8.02;;;6.70;82.90;;;;;;5030094;28;20061;-76
2021/01/02 04:46:15;;;;;;;12.57;8.18;;;6.70;82.90;;;;;;5029104;28;20055;-76
2021/01/02 04:48:44;;;;;;;13.48;9.40;;;6.70;82.80;;;;;;5027861;28;20021;-75
2021/01/02 04:51:12;;;;;;;13.38;8.93;;;6.70;82.90;;;;;;5029184;28;20029;-76
2021/01/02 04:53:38;;;;;;;13.63;9.65;;;6.70;82.90;;;;;;5049756;28;20056;-75
2021/01/02 04:56:06;;;;;;;12.45;8.45;;;6.70;82.80;;;;;;5038077;28;20048;-75
2021/01/02 04:58:35;;;;;;;14.07;9.80;;;6.70;82.90;;;;;;5036121;28;20017;-76
2021/01/02 05:01:03;;;;;;;12.85;9.15;;;6.70;82.80;;;;;;5039073;28;20017;-77
2021/01/02 05:03:33;;;;;;;12.02;8.35;;;6.70;82.80;;;;;;5038237;28;20037;-78
2021/01/02 05:05:59;;;;;;;13.82;9.45;;;6.70;82.80;;;;;;5034268;28;20026;-75
2021/01/02 05:08:25;;;;;;;13.23;9.80;;;6.70;82.80;;;;;;5030549;28;20536;-77
2021/01/02 05:11:02;;;;;;;12.93;8.85;;;6.70;82.80;;;;;;5036904;28;20083;-76
2021/01/02 05:13:33;;;;;;;14.13;9.63;;;6.70;82.90;;;;;;5039011;28;20060;-75
2021/01/02 05:16:20;;;;;;;13.60;9.63;;;6.70;82.80;;;;;;5037226;28;20041;-75
2021/01/02 05:19:07;;;;;;;12.65;8.88;;;6.70;82.90;;;;;;5050822;28;20388;-77
2021/01/02 05:21:34;;;;;;;13.95;9.13;;;6.70;82.80;;;;;;5027324;28;20040;-76
2021/01/02 05:24:04;;;;;;;14.50;10.43;;;6.70;82.80;;;;;;5036696;28;20700;-76
2021/01/02 05:26:31;;;;;;;14.80;10.65;;;6.70;82.80;;;;;;5043979;28;20029;-75
2021/01/02 05:29:18;;;;;;;15.48;10.57;;;6.60;82.90;;;;;;5050042;28;20021;-75
2021/01/02 05:31:47;;;;;;;13.82;9.25;;;6.70;83.00;;;;;;5049086;28;20036;-75
2021/01/02 05:34:16;;;;;;;13.60;9.88;;;6.70;82.90;;;;;;5053271;28;20025;-75
2021/01/02 05:36:42;;;;;;;13.82;9.68;;;6.60;82.80;;;;;;5053428;28;20024;-75
2021/01/02 05:39:10;;;;;;;13.13;9.27;;;6.60;82.90;;;;;;5051210;28;20102;-75
2021/01/02 05:41:50;;;;;;;14.65;10.25;;;6.60;82.90;;;;;;5043352;28;20017;-75
2021/01/02 05:44:16;;;;;;;14.20;9.75;;;6.60;82.90;;;;;;5037440;28;20052;-75
2021/01/02 05:46:47;;;;;;;14.70;10.30;;;6.60;82.90;;;;;;5029281;28;20049;-76
2021/01/02 05:49:34;;;;;;;14.32;10.07;;;6.60;82.90;;;;;;5049165;28;20056;-76
2021/01/02 05:52:10;;;;;;;17.13;11.65;;;6.60;83.00;;;;;;5042872;28;20378;-76
2021/01/02 05:54:51;;;;;;;14.93;9.38;;;6.60;83.50;;;;;;5047097;28;20030;-75
2021/01/02 05:57:28;;;;;;;15.65;10.98;;;6.60;82.90;;;;;;5033347;28;20030;-76
2021/01/02 05:59:58;;;;;;;15.25;10.68;;;6.60;82.90;;;;;;5038743;28;20048;-76
2021/01/02 06:02:26;;;;;;;15.75;10.77;;;6.60;82.80;;;;;;5031946;28;20080;-77
2021/01/02 06:04:57;;;;;;;15.10;10.65;;;6.60;82.90;;;;;;5043630;28;20029;-76
2021/01/02 06:07:23;;;;;;;14.07;10.02;;;6.60;82.90;;;;;;5032933;28;20169;-77
2021/01/02 06:09:50;;;;;;;16.48;11.15;;;6.60;82.90;;;;;;5025851;28;20420;-75
2021/01/02 06:12:42;;;;;;;15.50;10.68;;;6.60;82.90;;;;;;5039925;28;20033;-76
2021/01/02 06:15:18;;;;;;;14.50;9.80;;;6.60;83.10;;;;;;5023807;28;20041;-75
2021/01/02 06:17:47;;;;;;;14.73;10.45;;;6.60;82.90;;;;;;5025959;28;20504;-75
2021/01/02 06:20:14;;;;;;;15.68;10.93;;;6.60;82.90;;;;;;5043216;28;20030;-76
2021/01/02 06:22:41;;;;;;;16.38;11.52;;;6.60;82.90;;;;;;5047689;28;20544;-75
2021/01/02 06:25:10;;;;;;;15.13;10.95;;;6.60;82.90;;;;;;5022565;28;20389;-76
2021/01/02 06:27:45;;;;;;;16.45;10.40;;;6.60;82.90;;;;;;5020806;28;20492;-75
2021/01/02 06:30:21;;;;;;;16.48;10.88;;;6.50;82.90;;;;;;5048425;28;20021;-80
2021/01/02 06:32:47;;;;;;;14.75;10.35;;;6.60;83.00;;;;;;5047851;28;20033;-76
2021/01/02 06:35:13;;;;;;;15.73;11.48;;;6.60;82.90;;;;;;5028055;28;20068;-78
2021/01/02 06:37:48;;;;;;;18.75;11.55;;;6.50;82.90;;;;;;5037062;28;20067;-75
2021/01/02 06:40:37;;;;;;;14.25;10.60;;;6.60;83.00;;;;;;5035448;28;20048;-77
2021/01/02 06:43:08;;;;;;;15.48;10.15;;;6.50;82.90;;;;;;5035210;28;20029;-76
2021/01/02 06:45:40;;;;;;;15.52;10.77;;;6.50;82.90;;;;;;5032189;28;20044;-76
2021/01/02 06:48:23;;;;;;;13.70;10.05;;;6.50;82.90;;;;;;5036950;28;20073;-76
2021/01/02 06:50:49;;;;;;;16.23;10.43;;;6.50;82.90;;;;;;5024559;28;20037;-76
2021/01/02 06:53:21;;;;;;;16.05;10.82;;;6.50;82.80;;;;;;5052698;28;20037;-76
2021/01/02 06:56:06;;;;;;;18.15;11.77;;;6.50;82.90;;;;;;5051095;28;20473;-75
2021/01/02 06:58:42;;;;;;;15.15;10.38;;;6.50;83.00;;;;;;5024948;28;20037;-75
2021/01/02 07:01:16;;;;;;;14.05;10.45;;;6.50;82.90;;;;;;5026116;28;20025;-76
2021/01/02 07:03:41;;;;;;;17.88;11.70;;;6.50;82.90;;;;;;5047845;28;20559;-76
2021/01/02 07:06:20;;;;;;;14.88;10.23;;;6.50;82.80;;;;;;5019804;28;20025;-75
2021/01/02 07:08:54;;;;;;;16.45;10.82;;;6.50;83.00;;;;;;5029724;28;20036;-76
2021/01/02 07:11:33;;;;;;;16.05;11.10;;;6.50;82.90;;;;;;5047463;28;20037;-76
2021/01/02 07:14:08;;;;;;;15.60;10.98;;;6.50;83.00;;;;;;5045261;28;20079;-76
2021/01/02 07:16:38;;;;;;;;;;;6.50;82.90;;;;;;5036709;28;20032;-76
2021/01/02 07:19:05;;;;;;;13.57;9.43;;;6.50;82.90;;;;;;5043006;28;20411;-75
2021/01/02 07:21:38;;;;;;;15.73;10.18;;;6.50;82.70;;;;;;5028224;28;20124;-75
2021/01/02 07:24:27;;;;;;;15.70;11.07;;;6.40;82.80;;;;;;5049314;28;20036;-77
2021/01/02 07:26:57;;;;;;;18.05;11.70;;;6.50;83.00;;;;;;5011846;28;20034;-77
2021/01/02 07:29:23;;;;;;;17.42;11.00;;;6.40;82.80;;;;;;5045308;28;20032;-75
2021/01/02 07:31:49;;;;;;;16.70;10.82;;;6.50;82.90;;;;;;5050239;28;20033;-75
2021/01/02 07:34:22;;;;;;;17.20;10.95;;;6.50;82.90;;;;;;5020479;28;20056;-76
2021/01/02 07:36:49;;;;;;;14.77;10.88;;;6.40;82.90;;;;;;5039376;28;20033;-75
2021/01/02 07:39:16;;;;;;;19.15;11.73;;;6.40;82.90;;;;;;5043689;28;20033;-75
2021/01/02 07:41:43;;;;;;;16.67;11.55;;;6.40;82.90;;;;;;5020543;28;20033;-76
2021/01/02 07:44:09;;;;;;;17.48;11.52;;;6.40;82.90;;;;;;5030322;28;20099;-76
2021/01/02 07:46:44;;;;;;;17.65;11.65;;;6.50;83.00;;;;;;5031915;28;20084;-75
2021/01/02 07:49:10;;;;;;;18.48;11.73;;;6.40;82.90;;;;;;5048264;28;20029;-75
2021/01/02 07:51:36;;;;;;;15.32;10.93;;;6.40;82.90;;;;;;5037769;28;20378;-75
2021/01/02 07:54:03;;;;;;;19.20;11.70;;;6.40;82.90;;;;;;5039858;28;20034;-76
2021/01/02 07:56:37;;;;;;;17.83;11.13;;;6.40;82.90;;;;;;5036236;28;20119;-75
2021/01/02 07:59:22;;;;;;;16.92;10.73;;;6.40;82.90;;;;;;5020353;28;20028;-75
2021/01/02 08:01:52;;;;;;;17.35;11.27;;;6.40;82.90;;;;;;5031396;28;20029;-76
2021/01/02 08:04:19;;;;;;;16.65;10.90;;;6.50;82.90;;;;;;5011175;28;20033;-77
2021/01/02 08:06:53;;;;;;;16.48;11.38;;;6.40;82.80;;;;;;5038406;28;20461;-76
2021/01/02 08:09:19;;;;;;;15.93;10.38;;;6.40;82.90;;;;;;5043258;28;20075;-76
2021/01/02 08:12:08;;;;;;;17.23;11.45;;;6.40;82.80;;;;;;5035867;28;20029;-75
2021/01/02 08:14:37;;;;;;;20.13;12.23;;;6.40;83.00;;;;;;5029125;28;20052;-75
2021/01/02 08:17:11;;;;;;;18.60;11.25;;;6.40;82.90;;;;;;5048198;28;20087;-75
2021/01/02 08:19:46;;;;;;;20.80;13.63;;;6.40;82.90;;;;;;5030418;28;20609;-75
2021/01/02 08:22:12;;;;;;;17.13;11.75;;;6.40;82.90;;;;;;5040411;28;20176;-75
2021/01/02 08:24:38;;;;;;;20.02;12.30;;;6.40;82.90;;;;;;5048152;28;20060;-77
2021/01/02 08:27:05;;;;;;;17.75;11.88;;;6.40;82.90;;;;;;5049292;28;20033;-77
2021/01/02 08:29:34;;;;;;;17.80;11.48;;;6.40;82.90;;;;;;5042659;28;20026;-78
2021/01/02 08:32:13;;;;;;;17.48;11.32;;;6.40;82.90;;;;;;5024511;28;20053;-79
2021/01/02 08:34:45;;;;;;;18.33;11.55;;;6.40;83.00;;;;;;5026862;28;20103;-76
2021/01/02 08:37:14;;;;;;;18.80;11.43;;;6.40;82.90;;;;;;5047235;28;20043;-78
2021/01/02 08:39:41;;;;;;;20.02;12.48;;;6.40;82.90;;;;;;5048878;28;20025;-77
2021/01/02 08:42:07;;;;;;;17.80;11.10;;;6.40;83.10;;;;;;5032134;28;20033;-77
2021/01/02 08:44:37;;;;;;;16.58;11.73;;;6.40;82.90;;;;;;5011817;28;20473;-77
2021/01/02 08:47:05;;;;;;;18.90;11.50;;;6.40;82.90;;;;;;5035894;28;20048;-78
2021/01/02 08:49:36;;;;;;;19.63;12.18;;;6.40;82.90;;;;;;5044592;28;20045;-78
2021/01/02 08:52:26;;;;;;;17.05;11.00;;;6.40;82.90;;;;;;5049359;28;20040;-78
2021/01/02 08:55:07;;;;;;;18.20;12.10;;;6.40;83.00;;;;;;5044215;28;20538;-78
2021/01/02 08:57:53;;;;;;;19.95;12.30;;;6.40;82.90;;;;;;5042065;28;20021;-78
2021/01/02 09:00:30;;;;;;;17.83;10.93;;;6.40;82.90;;;;;;5041193;28;20496;-78
2021/01/02 09:02:59;;;;;;;18.65;11.68;;;6.40;82.90;;;;;;5026577;28;20045;-77
2021/01/02 09:05:31;;;;;;;17.58;11.40;;;6.40;82.90;;;;;;5044736;28;20532;-77
2021/01/02 09:08:03;;;;;;;19.42;12.25;;;6.40;83.00;;;;;;5050544;28;20029;-78
2021/01/02 09:10:29;;;;;;;18.38;11.23;;;6.40;82.90;;;;;;5049801;28;20664;-78
2021/01/02 09:13:22;;;;;;;19.10;11.82;;;6.40;82.90;;;;;;5049062;28;20032;-79
2021/01/02 09:16:00;;;;;;;19.83;12.13;;;6.40;83.10;;;;;;5029963;28;20076;-77
2021/01/02 09:18:29;;;;;;;21.58;12.63;;;6.40;82.90;;;;;;5026462;28;20032;-78
2021/01/02 09:21:14;;;;;;;17.98;10.93;;;6.40;82.90;;;;;;5041819;28;20087;-78
2021/01/02 09:23:42;;;;;;;17.67;10.82;;;6.40;82.90;;;;;;5045043;28;20056;-77
2021/01/02 09:26:22;;;;;;;18.63;11.48;;;6.40;82.90;;;;;;5039645;28;20466;-77
2021/01/02 09:28:49;;;;;;;19.05;11.60;;;6.40;83.00;;;;;;5031310;28;20132;-80
2021/01/02 09:31:15;;;;;;;18.60;11.10;;;6.40;82.90;;;;;;5044778;28;20579;-78
2021/01/02 09:33:41;;;;;;;18.13;10.75;;;6.40;82.90;;;;;;5031551;28;20041;-77
2021/01/02 09:36:07;;;;;;;18.85;11.07;;;6.40;82.90;;;;;;5049375;28;20025;-78
2021/01/02 09:38:33;;;;;;;19.23;10.88;;;6.40;82.90;;;;;;5037424;28;20041;-78
2021/01/02 09:40:59;;;;;;;17.58;11.05;;;6.40;83.60;;;;;;5013066;28;20657;-77
2021/01/02 09:43:26;;;;;;;17.60;10.98;;;6.40;83.00;;;;;;5022681;28;20033;-77
2021/01/02 09:45:51;;;;;;;16.95;11.15;;;6.40;83.00;;;;;;5042669;28;20563;-77
2021/01/02 09:48:18;;;;;;;19.63;12.00;;;6.40;82.90;;;;;;5034411;28;20057;-77
2021/01/02 09:50:44;;;;;;;18.70;12.00;;;6.40;83.00;;;;;;5031223;28;20037;-77
2021/01/02 09:53:11;;;;;;;19.98;12.18;;;6.40;83.00;;;;;;5044427;28;20489;-77
2021/01/02 09:55:37;;;;;;;20.45;11.88;;;6.40;82.90;;;;;;5037902;28;20036;-78
2021/01/02 09:58:04;;;;;;;22.05;13.52;;;6.40;83.00;;;;;;5053917;28;20025;-78
2021/01/02 10:00:30;;;;;;;19.20;11.55;;;6.40;83.00;;;;;;5032748;28;20090;-77
2021/01/02 10:02:57;;;;;;;19.73;11.85;;;6.50;83.00;;;;;;5031615;28;20103;-77
2021/01/02 10:05:24;;;;;;;19.63;11.18;;;6.40;82.90;;;;;;5050883;28;20029;-78
2021/01/02 10:07:50;;;;;;;18.77;11.13;;;6.40;82.90;;;;;;5044033;28;20025;-78
2021/01/02 10:10:18;;;;;;;19.88;11.68;;;6.40;82.90;;;;;;5015340;28;20029;-79
2021/01/02 10:12:45;;;;;;;18.33;11.77;;;6.40;82.90;;;;;;5041613;28;20617;-76
2021/01/02 10:15:12;;;;;;;17.10;9.90;;;6.40;82.90;;;;;;5034717;28;20075;-78
2021/01/02 10:17:38;;;;;;;20.45;12.00;;;6.50;83.00;;;;;;5036130;28;20104;-77
2021/01/02 10:20:05;;;;;;;20.23;12.20;;;6.40;82.90;;;;;;5024707;28;20140;-78
2021/01/02 10:22:31;;;;;;;20.35;11.65;;;6.40;83.00;;;;;;5049873;28;20025;-78
2021/01/02 10:24:57;;;;;;;19.73;12.10;;;6.40;82.90;;;;;;5042079;28;20408;-79
2021/01/02 10:27:24;;;;;;;20.92;12.00;;;6.40;82.90;;;;;;5014591;28;20022;-77
2021/01/02 10:29:52;;;;;;;18.80;10.88;;;6.40;83.00;;;;;;5034716;28;20409;-76
2021/01/02 10:32:21;;;;;;;20.13;12.20;;;6.50;83.10;;;;;;5049501;28;20065;-77
2021/01/02 10:34:48;;;;;;;20.98;12.30;;;6.40;83.00;;;;;;5040072;28;20025;-77
2021/01/02 10:37:15;;;;;;;18.08;11.77;;;6.50;83.00;;;;;;5045720;28;20017;-76
2021/01/02 10:39:42;;;;;;;19.98;11.85;;;6.50;83.00;;;;;;5062118;28;20029;-77
2021/01/02 10:42:09;;;;;;;17.92;10.82;;;6.50;83.00;;;;;;5016763;28;20044;-80
2021/01/02 10:44:35;;;;;;;20.92;12.40;;;6.50;83.00;;;;;;5037351;28;20028;-77
2021/01/02 10:47:01;;;;;;;19.63;12.27;;;6.50;83.00;;;;;;5034538;28;20132;-77
2021/01/02 10:49:28;;;;;;;18.67;11.55;;;6.50;83.00;;;;;;5027171;28;20475;-76
2021/01/02 10:51:55;;;;;;;17.88;11.50;;;6.50;83.10;;;;;;5049787;28;20021;-76
2021/01/02 10:54:22;;;;;;;18.58;11.25;;;6.50;83.00;;;;;;5051043;28;20021;-77
2021/01/02 10:56:52;;;;;;;18.90;10.60;;;6.50;83.10;;;;;;5050548;28;20116;-76
2021/01/02 10:59:20;;;;;;;18.02;11.15;;;6.50;83.00;;;;;;5050601;28;20094;-77
2021/01/02 11:01:48;;;;;;;19.23;11.18;;;6.50;83.10;;;;;;5050008;28;20033;-76
2021/01/02 11:04:15;;;;;;;18.80;11.60;;;6.50;83.10;;;;;;5050732;28;20029;-76
2021/01/02 11:06:43;;;;;;;17.52;10.75;;;6.50;83.00;;;;;;5044518;28;20105;-78
2021/01/02 11:09:12;;;;;;;17.77;10.88;;;6.50;83.10;;;;;;5045630;28;20429;-77
2021/01/02 11:11:37;;;;;;;18.02;11.02;;;6.50;83.10;;;;;;5034171;28;20377;-77
2021/01/02 11:14:04;;;;;;;18.08;11.15;;;6.50;83.10;;;;;;5030446;28;20028;-78
2021/01/02 11:16:32;;;;;;;16.65;10.15;;;6.50;83.00;;;;;;5046434;28;20059;-77
2021/01/02 11:18:57;;;;;;;15.50;9.95;;;6.60;83.10;;;;;;5044487;28;20553;-77
2021/01/02 11:21:24;;;;;;;18.13;11.45;;;6.60;83.00;;;;;;5050901;28;20032;-77
2021/01/02 11:23:50;;;;;;;16.75;10.02;;;6.60;83.10;;;;;;5044609;28;20041;-77
2021/01/02 11:26:16;;;;;;;17.05;9.30;;;6.50;83.00;;;;;;5038184;28;20156;-77
2021/01/02 11:28:42;;;;;;;17.90;10.48;;;6.60;83.00;;;;;;5037249;28;20025;-78
2021/01/02 11:31:08;;;;;;;18.25;10.52;;;6.60;83.00;;;;;;5032846;28;20040;-78
2021/01/02 11:33:34;;;;;;;17.73;10.95;;;6.60;83.00;;;;;;5043768;28;20031;-77
2021/01/02 11:36:00;;;;;;;19.73;10.75;;;6.60;83.00;;;;;;5050486;28;20496;-77
2021/01/02 11:38:26;;;;;;;19.13;11.88;;;6.60;83.00;;;;;;5026979;28;20466;-77
2021/01/02 11:40:52;;;;;;;15.23;10.35;;;6.60;83.00;;;;;;5014281;28;20113;-79
2021/01/02 11:43:18;;;;;;;17.98;11.68;;;6.60;83.00;;;;;;5007904;28;20040;-79
2021/01/02 11:45:46;;;;;;;20.63;11.55;;;6.60;83.00;;;;;;5036739;28;20025;-78
2021/01/02 11:48:12;;;;;;;18.63;10.95;;;6.60;83.00;;;;;;5042411;28;20064;-77
2021/01/02 11:50:39;;;;;;;17.58;10.55;;;6.60;83.00;;;;;;5039984;28;20037;-79
2021/01/02 11:53:05;;;;;;;20.75;11.30;;;6.60;83.00;;;;;;5033219;28;20033;-78
2021/01/02 11:55:30;;;;;;;17.20;10.80;;;6.60;83.00;;;;;;5043647;28;20550;-78
2021/01/02 11:57:56;;;;;;;20.08;11.50;;;6.60;83.00;;;;;;5048844;28;20083;-79
2021/01/02 12:00:22;;;;;;;16.88;10.65;;;6.60;83.00;;;;;;5030188;28;20037;-78
2021/01/02 12:02:48;;;;;;;15.27;9.05;;;6.70;83.00;;;;;;5047157;28;20052;-78
2021/01/02 12:05:14;;;;;;;19.40;11.45;;;6.60;82.90;;;;;;5030279;28;20069;-79
2021/01/02 12:07:39;;;;;;;18.08;11.00;;;6.70;83.10;;;;;;5031868;28;20116;-77
2021/01/02 12:10:06;;;;;;;18.90;10.27;;;6.70;83.00;;;;;;5041726;28;20044;-78
2021/01/02 12:12:31;;;;;;;20.15;11.02;;;6.70;83.00;;;;;;5050036;28;20032;-77
2021/01/02 12:14:57;;;;;;;17.30;10.15;;;6.70;83.00;;;;;;5045665;28;20393;-77
2021/01/02 12:17:23;;;;;;;16.30;10.70;;;6.70;83.00;;;;;;5032329;28;20051;-77
2021/01/02 12:19:49;;;;;;;17.77;10.73;;;6.70;83.00;;;;;;5041144;28;20028;-78
2021/01/02 12:22:14;;;;;;;17.30;10.18;;;6.70;83.00;;;;;;5012987;28;20068;-78
2021/01/02 12:24:41;;;;;;;16.98;10.25;;;6.70;83.00;;;;;;5040013;28;20076;-77
2021/01/02 12:27:10;;;;;;;16.55;10.45;;;6.70;83.00;;;;;;5043750;28;20637;-77
2021/01/02 12:29:36;;;;;;;18.67;10.48;;;6.70;83.00;;;;;;5027402;28;20060;-78
2021/01/02 12:32:09;;;;;;;19.17;11.18;;;6.70;83.00;;;;;;5043985;28;20075;-77
2021/01/02 12:34:37;;;;;;;16.70;9.98;;;6.70;83.00;;;;;;5042189;28;20466;-78
2021/01/02 12:37:07;;;;;;;15.88;9.85;;;6.70;83.00;;;;;;5047275;28;20029;-78
2021/01/02 12:39:34;;;;;;;17.35;10.40;;;6.80;83.00;;;;;;5028032;28;20106;-78
2021/01/02 12:42:00;;;;;;;16.33;10.68;;;6.80;83.00;;;;;;5042735;28;20029;-77
2021/01/02 12:44:28;;;;;;;18.60;10.30;;;6.70;82.90;;;;;;5021379;28;20079;-77
2021/01/02 12:47:00;;;;;;;16.40;9.68;;;6.70;83.00;;;;;;5037106;28;20473;-79
2021/01/02 12:49:29;;;;;;;16.77;9.90;;;6.80;83.00;;;;;;5032385;28;20533;-77
2021/01/02 12:51:56;;;;;;;16.27;10.25;;;6.80;83.00;;;;;;5026308;28;20087;-78
2021/01/02 12:54:22;;;;;;;16.33;9.50;;;6.70;82.90;;;;;;5033297;28;20052;-77
2021/01/02 12:56:50;;;;;;;18.33;10.57;;;6.80;83.00;;;;;;5050849;28;20485;-80
2021/01/02 12:59:21;;;;;;;18.25;11.32;;;6.80;83.00;;;;;;5032684;28;20056;-77
2021/01/02 13:01:47;;;;;;;17.23;9.40;;;6.80;83.00;;;;;;5050769;28;20025;-78